createdAt,value
2018-04-19T00:01:44.572Z,96.00
2018-04-19T00:04:11.191Z,96.00
2018-04-19T00:06:38.059Z,96.00
2018-04-19T00:09:05.530Z,96.10
2018-04-19T00:11:32.062Z,96.10
2018-04-19T00:13:59.040Z,96.30
2018-04-19T00:16:26.351Z,96.30
2018-04-19T00:18:52.965Z,96.20
2018-04-19T00:21:20.572Z,96.20
2018-04-19T00:23:47.223Z,96.20
2018-04-19T00:26:13.747Z,96.20
2018-04-19T00:28:40.582Z,96.30
2018-04-19T00:31:07.180Z,96.30
2018-04-19T00:33:33.614Z,96.40
2018-04-19T00:36:00.212Z,96.40
2018-04-19T00:38:26.705Z,96.50
2018-04-19T00:40:53.325Z,96.60
2018-04-19T00:43:19.786Z,96.60
2018-04-19T00:45:46.475Z,96.70
2018-04-19T00:48:13.704Z,96.80
2018-04-19T00:50:40.277Z,96.70
2018-04-19T00:53:08.783Z,96.80
2018-04-19T00:55:35.380Z,96.80
2018-04-19T00:58:02.057Z,96.90
2018-04-19T01:00:28.709Z,96.90
2018-04-19T01:02:55.311Z,97.00
2018-04-19T01:05:21.840Z,97.00
2018-04-19T01:07:49.126Z,96.90
2018-04-19T01:10:15.697Z,97.00
2018-04-19T01:12:42.568Z,97.10
2018-04-19T01:15:09.848Z,97.20
2018-04-19T01:17:36.398Z,97.20
2018-04-19T01:20:02.942Z,97.30
2018-04-19T01:22:29.523Z,97.40
2018-04-19T01:24:56.039Z,97.40
2018-04-19T01:27:23.590Z,97.60
2018-04-19T01:29:50.058Z,97.60
2018-04-19T01:32:16.567Z,97.80
2018-04-19T01:34:43.482Z,97.80
2018-04-19T01:37:09.968Z,97.90
2018-04-19T01:39:36.474Z,98.00
2018-04-19T01:42:04.108Z,98.40
2018-04-19T01:44:30.730Z,98.00
2018-04-19T01:46:57.354Z,98.10
2018-04-19T01:49:24.265Z,98.10
2018-04-19T01:51:50.706Z,98.20
2018-04-19T01:54:17.228Z,98.20
2018-04-19T01:56:43.749Z,98.30
2018-04-19T01:59:10.256Z,98.50
2018-04-19T02:01:37.508Z,98.60
2018-04-19T02:04:04.341Z,98.50
2018-04-19T02:06:31.572Z,98.70
2018-04-19T02:08:58.039Z,98.70
2018-04-19T02:11:25.132Z,98.80
2018-04-19T02:13:51.645Z,98.80
2018-04-19T02:16:18.129Z,98.90
2018-04-19T02:18:46.004Z,99.00
2018-04-19T02:21:13.214Z,99.00
2018-04-19T02:23:39.687Z,99.00
2018-04-19T02:26:07.008Z,99.00
2018-04-19T02:28:33.599Z,99.20
2018-04-19T02:31:00.026Z,99.20
2018-04-19T02:33:33.815Z,99.20
2018-04-19T02:36:00.327Z,99.30
2018-04-19T02:38:26.784Z,99.30
2018-04-19T02:40:53.277Z,99.40
2018-04-19T02:43:19.917Z,99.50
2018-04-19T02:45:46.396Z,99.50
2018-04-19T02:48:13.935Z,99.70
2018-04-19T02:50:40.479Z,99.70
2018-04-19T02:53:07.879Z,99.70
2018-04-19T02:55:34.856Z,99.80
2018-04-19T02:58:01.459Z,99.80
2018-04-19T03:00:27.950Z,99.90
2018-04-19T03:02:54.483Z,99.90
2018-04-19T03:05:20.980Z,99.90
2018-04-19T03:07:47.527Z,99.90
2018-04-19T03:10:14.233Z,99.90
2018-04-19T03:12:40.774Z,99.90
2018-04-19T03:15:07.994Z,99.90
2018-04-19T03:17:34.565Z,99.90
2018-04-19T03:20:01.105Z,99.90
2018-04-19T03:22:27.531Z,99.90
2018-04-19T03:24:54.411Z,99.90
2018-04-19T03:27:20.976Z,99.90
2018-04-19T03:29:47.475Z,99.90
2018-04-19T03:32:14.302Z,99.90
2018-04-19T03:34:40.848Z,99.90
2018-04-19T03:37:07.236Z,99.90
2018-04-19T03:39:33.802Z,99.90
2018-04-19T03:42:00.268Z,99.90
2018-04-19T03:44:26.748Z,99.90
2018-04-19T03:46:53.325Z,99.90
2018-04-19T03:49:19.796Z,99.90
2018-04-19T03:51:46.404Z,99.90
2018-04-19T03:54:13.140Z,99.90
2018-04-19T03:56:39.616Z,99.90
2018-04-19T03:59:06.162Z,99.90
2018-04-19T04:01:32.626Z,99.90
2018-04-19T04:03:59.334Z,99.90
2018-04-19T04:06:25.789Z,99.90
2018-04-19T04:08:52.428Z,99.90
2018-04-19T04:11:20.633Z,99.90
2018-04-19T04:13:47.169Z,99.90
2018-04-19T04:16:25.943Z,99.90
2018-04-19T04:19:04.530Z,99.90
2018-04-19T04:21:31.103Z,99.90
2018-04-19T04:23:57.529Z,99.90
2018-04-19T04:26:24.138Z,99.90
2018-04-19T04:28:50.926Z,99.90
2018-04-19T04:31:17.419Z,99.90
2018-04-19T04:33:43.977Z,99.90
2018-04-19T04:36:10.930Z,99.90
2018-04-19T04:38:37.409Z,99.90
2018-04-19T04:41:03.886Z,99.90
2018-04-19T04:43:30.706Z,99.80
2018-04-19T04:45:57.176Z,99.80
2018-04-19T04:48:24.393Z,99.70
2018-04-19T04:50:51.090Z,99.60
2018-04-19T04:53:18.547Z,99.40
2018-04-19T04:55:46.102Z,99.30
2018-04-19T04:58:12.920Z,99.30
2018-04-19T05:00:40.690Z,99.30
2018-04-19T05:03:07.303Z,99.30
2018-04-19T05:05:33.926Z,99.30
2018-04-19T05:08:00.476Z,99.30
2018-04-19T05:10:27.865Z,99.10
2018-04-19T05:12:54.909Z,99.10
2018-04-19T05:15:21.419Z,99.10
2018-04-19T05:17:47.913Z,99.20
2018-04-19T05:20:15.209Z,98.70
2018-04-19T05:22:48.713Z,98.70
2018-04-19T05:25:15.315Z,98.30
2018-04-19T05:27:42.047Z,98.10
2018-04-19T05:30:08.662Z,98.00
2018-04-19T05:32:35.337Z,97.90
2018-04-19T05:35:02.199Z,97.90
2018-04-19T05:37:28.873Z,97.80
2018-04-19T05:39:55.446Z,97.70
2018-04-19T05:42:22.233Z,97.40
2018-04-19T05:44:48.781Z,97.20
2018-04-19T05:47:16.065Z,96.90
2018-04-19T05:49:42.968Z,96.90
2018-04-19T05:52:09.631Z,96.70
2018-04-19T05:54:36.359Z,96.60
2018-04-19T05:57:02.902Z,96.50
2018-04-19T05:59:30.108Z,95.70
2018-04-19T06:01:58.655Z,95.50
2018-04-19T06:04:26.230Z,95.10
2018-04-19T06:06:52.880Z,95.00
2018-04-19T06:09:19.443Z,94.80
2018-04-19T06:11:46.626Z,94.50
2018-04-19T06:14:13.177Z,94.30
2018-04-19T06:16:40.517Z,93.50
2018-04-19T06:19:11.481Z,93.40
2018-04-19T06:21:38.185Z,92.80
2018-04-19T06:24:05.454Z,92.70
2018-04-19T06:26:32.085Z,92.60
2018-04-19T06:28:58.769Z,92.10
2018-04-19T06:31:25.268Z,86.10
2018-04-19T06:33:52.194Z,78.80
2018-04-19T06:36:18.753Z,72.90
2018-04-19T06:38:46.375Z,68.80
2018-04-19T06:41:14.430Z,66.40
2018-04-19T06:43:41.027Z,62.40
2018-04-19T06:46:08.321Z,59.00
2018-04-19T06:48:34.914Z,58.90
2018-04-19T06:51:01.828Z,61.10
2018-04-19T06:53:28.684Z,59.70
2018-04-19T06:55:55.283Z,56.60
2018-04-19T06:58:21.911Z,53.80
2018-04-19T07:00:48.329Z,54.20
2018-04-19T07:03:15.846Z,52.40
2018-04-19T07:05:42.523Z,52.30
2018-04-19T07:08:09.052Z,51.70
2018-04-19T07:10:36.573Z,48.30
2018-04-19T07:13:03.170Z,48.30
2018-04-19T07:15:29.868Z,47.40
2018-04-19T07:17:56.696Z,48.30
2018-04-19T07:20:23.114Z,49.00
2018-04-19T07:22:50.496Z,47.30
2018-04-19T07:25:17.080Z,46.00
2018-04-19T07:27:44.466Z,44.60
2018-04-19T07:30:11.025Z,44.50
2018-04-19T07:32:37.553Z,44.60
2018-04-19T07:35:04.721Z,43.60
2018-04-19T07:37:31.144Z,43.50
2018-04-19T07:39:57.772Z,44.30
2018-04-19T07:42:24.688Z,45.10
2018-04-19T07:44:51.163Z,45.00
2018-04-19T07:47:17.659Z,44.70
2018-04-19T07:49:44.411Z,44.20
2018-04-19T07:52:10.876Z,43.40
2018-04-19T07:54:37.584Z,42.80
2018-04-19T07:57:04.151Z,42.40
2018-04-19T07:59:30.765Z,41.20
2018-04-19T08:01:57.376Z,42.70
2018-04-19T08:04:24.753Z,45.90
2018-04-19T08:06:51.192Z,45.80
2018-04-19T08:09:17.831Z,48.90
2018-04-19T08:11:44.363Z,50.30
2018-04-19T08:14:10.782Z,51.80
2018-04-19T08:16:37.668Z,52.40
2018-04-19T08:19:04.121Z,52.70
2018-04-19T08:21:32.086Z,51.50
2018-04-19T08:23:58.783Z,51.40
2018-04-19T08:26:25.323Z,50.20
2018-04-19T08:28:51.851Z,47.60
2018-04-19T08:31:18.653Z,45.20
2018-04-19T08:33:45.307Z,44.00
2018-04-19T08:36:12.621Z,42.90
2018-04-19T08:38:39.456Z,42.90
2018-04-19T08:41:06.102Z,45.10
2018-04-19T08:43:32.803Z,45.50
2018-04-19T08:45:59.543Z,44.60
2018-04-19T08:48:26.045Z,42.90
2018-04-19T08:50:52.598Z,42.40
2018-04-19T08:53:19.307Z,41.70
2018-04-19T08:55:46.017Z,41.50
2018-04-19T08:58:12.542Z,41.30
2018-04-19T09:00:39.069Z,40.30
2018-04-19T09:03:05.755Z,39.30
2018-04-19T09:05:32.214Z,39.40
2018-04-19T09:07:59.687Z,37.70
2018-04-19T09:10:26.874Z,37.00
2018-04-19T09:12:53.391Z,37.00
2018-04-19T09:15:20.516Z,37.50
2018-04-19T09:17:47.072Z,37.60
2018-04-19T09:20:14.457Z,37.30
2018-04-19T09:22:41.299Z,37.20
2018-04-19T09:25:09.340Z,38.30
2018-04-19T09:27:36.638Z,37.30
2018-04-19T09:30:03.386Z,37.20
2018-04-19T09:32:29.962Z,36.90
2018-04-19T09:34:57.203Z,40.00
2018-04-19T09:37:23.768Z,40.00
2018-04-19T09:39:50.229Z,40.10
2018-04-19T09:42:17.105Z,41.00
2018-04-19T09:44:44.764Z,41.10
2018-04-19T09:47:11.560Z,40.50
2018-04-19T09:49:38.108Z,39.10
2018-04-19T09:52:04.675Z,37.50
2018-04-19T09:54:31.131Z,37.20
2018-04-19T09:56:57.755Z,37.90
2018-04-19T09:59:24.257Z,39.80
2018-04-19T10:01:51.612Z,41.10
2018-04-19T10:04:24.437Z,41.00
2018-04-19T10:06:51.773Z,38.80
2018-04-19T10:09:18.346Z,38.70
2018-04-19T10:11:45.012Z,37.20
2018-04-19T10:14:11.556Z,37.40
2018-04-19T10:16:38.180Z,36.60
2018-04-19T10:19:06.592Z,37.90
2018-04-19T10:21:33.142Z,38.20
2018-04-19T10:23:59.733Z,38.70
2018-04-19T10:26:26.367Z,40.70
2018-04-19T10:28:52.949Z,40.10
2018-04-19T10:31:19.498Z,40.90
2018-04-19T10:33:46.341Z,40.20
2018-04-19T10:36:12.994Z,38.90
2018-04-19T10:38:39.491Z,39.50
2018-04-19T10:41:06.212Z,40.80
2018-04-19T10:43:33.664Z,42.10
2018-04-19T10:46:00.266Z,42.20
2018-04-19T10:48:26.990Z,41.40
2018-04-19T10:50:54.274Z,41.40
2018-04-19T10:53:21.474Z,41.40
2018-04-19T10:55:48.054Z,42.30
2018-04-19T10:58:14.576Z,41.70
2018-04-19T11:00:41.152Z,41.60
2018-04-19T11:03:07.760Z,42.40
2018-04-19T11:05:34.428Z,43.30
2018-04-19T11:08:01.179Z,43.40
2018-04-19T11:10:28.409Z,44.40
2018-04-19T11:12:54.934Z,44.30
2018-04-19T11:15:22.115Z,45.80
2018-04-19T11:17:48.639Z,45.70
2018-04-19T11:20:15.839Z,48.30
2018-04-19T11:22:43.220Z,48.30
2018-04-19T11:25:09.780Z,49.70
2018-04-19T11:27:37.069Z,50.50
2018-04-19T11:30:03.680Z,51.10
2018-04-19T11:32:31.315Z,51.40
2018-04-19T11:34:57.818Z,52.00
2018-04-19T11:37:24.471Z,52.70
2018-04-19T11:39:50.988Z,53.10
2018-04-19T11:42:17.475Z,53.30
2018-04-19T11:44:44.956Z,56.90
2018-04-19T11:47:11.906Z,56.90
2018-04-19T11:49:38.447Z,57.90
2018-04-19T11:52:05.048Z,58.50
2018-04-19T11:54:31.609Z,59.20
2018-04-19T11:56:58.088Z,59.70
2018-04-19T11:59:24.509Z,59.60
2018-04-19T12:01:51.169Z,60.30
2018-04-19T12:04:17.592Z,61.10
2018-04-19T12:06:44.693Z,62.00
2018-04-19T12:09:11.260Z,62.30
2018-04-19T12:11:37.753Z,62.40
2018-04-19T12:14:04.435Z,62.70
2018-04-19T12:16:31.944Z,62.00
2018-04-19T12:18:59.101Z,61.90
2018-04-19T12:21:26.349Z,60.90
2018-04-19T12:23:53.005Z,60.70
2018-04-19T12:26:19.561Z,60.20
2018-04-19T12:28:46.098Z,59.80
2018-04-19T12:31:12.668Z,59.30
2018-04-19T12:33:39.723Z,59.50
2018-04-19T12:36:06.308Z,58.70
2018-04-19T12:38:32.913Z,58.40
2018-04-19T12:40:59.512Z,58.10
2018-04-19T12:43:25.968Z,59.20
2018-04-19T12:45:53.811Z,59.30
2018-04-19T12:48:20.448Z,59.40
2018-04-19T12:50:47.152Z,58.70
2018-04-19T12:53:14.061Z,57.80
2018-04-19T12:55:40.715Z,56.40
2018-04-19T12:58:07.235Z,56.50
2018-04-19T13:00:33.945Z,55.70
2018-04-19T13:03:00.450Z,55.70
2018-04-19T13:05:27.014Z,55.70
2018-04-19T13:07:53.611Z,55.00
2018-04-19T13:10:20.250Z,55.40
2018-04-19T13:12:47.484Z,54.60
2018-04-19T13:15:14.777Z,54.50
2018-04-19T13:17:41.363Z,53.80
2018-04-19T13:20:07.959Z,53.00
2018-04-19T13:22:34.495Z,52.60
2018-04-19T13:25:01.055Z,51.50
2018-04-19T13:27:27.596Z,51.40
2018-04-19T13:29:54.165Z,51.40
2018-04-19T13:32:20.627Z,51.60
2018-04-19T13:34:47.109Z,51.40
2018-04-19T13:37:13.640Z,49.90
2018-04-19T13:39:41.019Z,50.00
2018-04-19T13:42:07.553Z,50.00
2018-04-19T13:44:34.983Z,48.20
2018-04-19T13:47:01.602Z,48.20
2018-04-19T13:49:28.575Z,48.30
2018-04-19T13:51:56.126Z,49.50
2018-04-19T13:54:23.296Z,49.40
2018-04-19T13:56:49.819Z,48.70
2018-04-19T13:59:16.363Z,48.60
2018-04-19T14:01:43.609Z,49.60
2018-04-19T14:04:11.012Z,49.50
2018-04-19T14:06:38.515Z,50.30
2018-04-19T14:09:07.673Z,50.30
2018-04-19T14:11:34.888Z,50.70
2018-04-19T14:14:01.406Z,50.70
2018-04-19T14:16:27.939Z,50.50
2018-04-19T14:18:54.540Z,51.60
2018-04-19T14:21:21.256Z,50.70
2018-04-19T14:23:47.875Z,50.70
2018-04-19T14:26:16.196Z,50.90
2018-04-19T14:28:42.936Z,50.90
2018-04-19T14:31:09.629Z,51.00
2018-04-19T14:33:36.150Z,51.20
2018-04-19T14:36:02.924Z,51.40
2018-04-19T14:38:29.446Z,51.70
2018-04-19T14:40:56.788Z,50.60
2018-04-19T14:43:23.362Z,50.50
2018-04-19T14:45:50.087Z,50.50
2018-04-19T14:48:16.654Z,49.90
2018-04-19T14:50:43.300Z,49.90
2018-04-19T14:53:09.778Z,49.20
2018-04-19T14:55:36.436Z,48.90
2018-04-19T14:58:03.138Z,49.20
2018-04-19T15:00:29.649Z,49.40
2018-04-19T15:02:56.172Z,49.90
2018-04-19T15:05:23.351Z,50.00
2018-04-19T15:07:50.739Z,50.60
2018-04-19T15:10:17.300Z,51.20
2018-04-19T15:12:44.779Z,51.10
2018-04-19T15:15:12.311Z,51.10
2018-04-19T15:17:38.883Z,51.10
2018-04-19T15:20:06.443Z,51.10
2018-04-19T15:22:33.112Z,50.60
2018-04-19T15:24:59.705Z,51.00
2018-04-19T15:27:26.665Z,50.80
2018-04-19T15:29:53.172Z,51.00
2018-04-19T15:32:19.999Z,51.20
2018-04-19T15:34:46.833Z,51.00
2018-04-19T15:37:14.944Z,51.00
2018-04-19T15:39:41.558Z,51.00
2018-04-19T15:42:08.625Z,51.40
2018-04-19T15:44:35.179Z,51.50
2018-04-19T15:47:01.736Z,51.80
2018-04-19T15:49:28.348Z,51.40
2018-04-19T15:51:54.878Z,52.10
2018-04-19T15:54:22.225Z,52.10
2018-04-19T15:56:48.779Z,52.10
2018-04-19T15:59:15.278Z,52.00
2018-04-19T16:01:41.918Z,52.30
2018-04-19T16:04:08.520Z,52.40
2018-04-19T16:06:34.974Z,52.50
2018-04-19T16:09:01.525Z,52.80
2018-04-19T16:11:28.310Z,53.70
2018-04-19T16:13:54.798Z,53.70
2018-04-19T16:16:21.265Z,53.70
2018-04-19T16:18:47.737Z,54.40
2018-04-19T16:21:14.163Z,54.60
2018-04-19T16:23:40.658Z,54.60
2018-04-19T16:26:07.214Z,54.40
2018-04-19T16:28:33.698Z,54.50
2018-04-19T16:31:00.308Z,54.70
2018-04-19T16:33:26.955Z,55.00
2018-04-19T16:35:53.522Z,54.70
2018-04-19T16:38:20.040Z,55.20
2018-04-19T16:40:46.637Z,55.60
2018-04-19T16:43:13.171Z,55.60
2018-04-19T16:45:39.650Z,56.70
2018-04-19T16:48:07.041Z,56.50
2018-04-19T16:50:33.499Z,56.40
2018-04-19T16:53:00.087Z,56.20
2018-04-19T16:55:27.585Z,56.90
2018-04-19T16:57:54.969Z,56.80
2018-04-19T17:00:21.453Z,56.80
2018-04-19T17:02:47.994Z,56.90
2018-04-19T17:05:15.307Z,57.40
2018-04-19T17:07:41.798Z,57.30
2018-04-19T17:10:08.338Z,58.30
2018-04-19T17:12:34.930Z,58.30
2018-04-19T17:15:01.646Z,58.50
2018-04-19T17:17:31.092Z,59.00
2018-04-19T17:19:57.845Z,58.90
2018-04-19T17:22:24.769Z,59.40
2018-04-19T17:24:52.867Z,60.60
2018-04-19T17:27:19.384Z,60.60
2018-04-19T17:29:46.674Z,61.80
2018-04-19T17:32:13.530Z,61.70
2018-04-19T17:34:40.123Z,62.10
2018-04-19T17:37:06.553Z,62.20
2018-04-19T17:39:33.344Z,61.50
2018-04-19T17:42:00.629Z,62.20
2018-04-19T17:44:27.669Z,62.70
2018-04-19T17:46:54.407Z,62.20
2018-04-19T17:49:21.700Z,63.30
2018-04-19T17:51:48.236Z,63.10
2018-04-19T17:54:15.209Z,62.90
2018-04-19T17:56:42.394Z,63.40
2018-04-19T17:59:09.051Z,63.20
2018-04-19T18:01:35.602Z,63.70
2018-04-19T18:04:03.849Z,64.20
2018-04-19T18:06:30.365Z,64.00
2018-04-19T18:08:57.253Z,64.00
2018-04-19T18:11:24.455Z,65.00
2018-04-19T18:13:50.872Z,64.90
2018-04-19T18:16:17.564Z,64.90
2018-04-19T18:18:45.021Z,65.60
2018-04-19T18:21:11.488Z,65.50
2018-04-19T18:23:38.316Z,67.00
2018-04-19T18:26:04.768Z,66.40
2018-04-19T18:28:31.233Z,66.80
2018-04-19T18:30:58.198Z,67.40
2018-04-19T18:33:24.646Z,67.50
2018-04-19T18:35:51.816Z,67.90
2018-04-19T18:38:18.703Z,67.80
2018-04-19T18:40:45.384Z,67.70
2018-04-19T18:43:11.825Z,68.20
2018-04-19T18:45:38.357Z,68.50
2018-04-19T18:48:04.788Z,70.10
2018-04-19T18:50:31.228Z,71.80
2018-04-19T18:52:57.974Z,73.20
2018-04-19T18:55:24.444Z,74.80
2018-04-19T18:57:50.887Z,75.90
2018-04-19T19:00:17.412Z,76.90
2018-04-19T19:02:44.621Z,78.10
2018-04-19T19:05:11.201Z,78.10
2018-04-19T19:07:38.734Z,79.00
2018-04-19T19:10:05.208Z,78.90
2018-04-19T19:12:31.728Z,79.40
2018-04-19T19:14:58.487Z,79.80
2018-04-19T19:17:36.858Z,80.20
2018-04-19T19:20:10.228Z,80.80
2018-04-19T19:22:36.747Z,80.70
2018-04-19T19:25:03.227Z,81.20
2018-04-19T19:27:29.727Z,81.40
2018-04-19T19:29:56.220Z,81.90
2018-04-19T19:32:22.628Z,82.00
2018-04-19T19:34:49.405Z,82.50
2018-04-19T19:37:16.607Z,83.20
2018-04-19T19:39:43.012Z,83.20
2018-04-19T19:42:09.543Z,83.70
2018-04-19T19:44:36.046Z,83.80
2018-04-19T19:47:02.743Z,84.30
2018-04-19T19:49:29.250Z,84.60
2018-04-19T19:51:55.726Z,85.20
2018-04-19T19:54:22.140Z,85.60
2018-04-19T19:56:48.873Z,86.00
2018-04-19T19:59:15.310Z,86.50
2018-04-19T20:01:41.874Z,86.70
2018-04-19T20:04:08.734Z,87.10
2018-04-19T20:06:36.745Z,87.70
2018-04-19T20:09:03.973Z,88.10
2018-04-19T20:11:30.657Z,87.90
2018-04-19T20:13:57.093Z,88.20
2018-04-19T20:16:23.547Z,88.40
2018-04-19T20:18:50.148Z,88.40
2018-04-19T20:21:16.580Z,88.60
2018-04-19T20:23:43.056Z,88.80
2018-04-19T20:26:09.555Z,89.00
2018-04-19T20:28:36.105Z,89.10
2018-04-19T20:31:02.550Z,89.10
2018-04-19T20:33:29.020Z,89.50
2018-04-19T20:35:55.505Z,89.60
2018-04-19T20:38:21.940Z,89.80
2018-04-19T20:40:48.711Z,89.90
2018-04-19T20:43:16.109Z,90.20
2018-04-19T20:45:42.582Z,90.30
2018-04-19T20:48:09.053Z,90.20
2018-04-19T20:50:35.501Z,90.30
2018-04-19T20:53:02.773Z,90.50
2018-04-19T20:55:29.277Z,90.40
2018-04-19T20:57:55.692Z,90.50
2018-04-19T21:00:22.164Z,90.60
2018-04-19T21:02:49.739Z,90.90
2018-04-19T21:05:16.227Z,90.90
2018-04-19T21:07:42.713Z,91.10
2018-04-19T21:10:09.619Z,91.10
2018-04-19T21:12:36.854Z,90.90
2018-04-19T21:15:03.360Z,90.90
2018-04-19T21:17:29.991Z,90.90
2018-04-19T21:19:57.179Z,91.30
2018-04-19T21:22:23.626Z,91.20
2018-04-19T21:24:50.188Z,91.40
2018-04-19T21:27:16.705Z,91.70
2018-04-19T21:29:43.837Z,91.40
2018-04-19T21:32:10.327Z,91.40
2018-04-19T21:34:36.854Z,91.60
2018-04-19T21:37:03.310Z,91.40
2018-04-19T21:39:29.930Z,91.40
2018-04-19T21:41:56.415Z,91.60
2018-04-19T21:44:22.834Z,91.50
2018-04-19T21:46:49.298Z,91.60
2018-04-19T21:49:15.810Z,91.60
2018-04-19T21:51:42.283Z,91.60
2018-04-19T21:54:09.856Z,91.70
2018-04-19T21:56:36.268Z,91.70
2018-04-19T21:59:02.725Z,91.80
2018-04-19T22:01:29.199Z,91.90
2018-04-19T22:03:56.503Z,92.00
2018-04-19T22:06:22.979Z,91.90
2018-04-19T22:08:49.838Z,92.10
2018-04-19T22:11:16.251Z,92.00
2018-04-19T22:13:42.700Z,91.90
2018-04-19T22:16:09.306Z,91.90
2018-04-19T22:18:35.825Z,91.90
2018-04-19T22:21:03.034Z,92.00
2018-04-19T22:23:30.690Z,92.00
2018-04-19T22:25:57.910Z,92.30
2018-04-19T22:28:24.344Z,92.30
2018-04-19T22:30:51.230Z,92.30
2018-04-19T22:33:17.681Z,92.40
2018-04-19T22:35:44.176Z,92.40
2018-04-19T22:38:10.813Z,92.50
2018-04-19T22:40:37.498Z,92.60
2018-04-19T22:43:03.898Z,92.60
2018-04-19T22:45:30.669Z,92.70
2018-04-19T22:47:57.063Z,92.70
2018-04-19T22:50:23.583Z,92.80
2018-04-19T22:52:50.139Z,92.80
2018-04-19T22:55:16.666Z,92.90
2018-04-19T22:57:43.230Z,92.80
2018-04-19T23:00:10.084Z,92.80
2018-04-19T23:02:36.569Z,92.70
2018-04-19T23:05:03.740Z,92.80
2018-04-19T23:07:30.219Z,92.80
2018-04-19T23:09:56.692Z,93.00
2018-04-19T23:12:23.176Z,93.00
2018-04-19T23:14:50.324Z,93.00
2018-04-19T23:17:16.733Z,93.10
2018-04-19T23:19:43.232Z,93.00
2018-04-19T23:22:10.313Z,93.10
2018-04-19T23:24:36.823Z,93.20
2018-04-19T23:27:03.321Z,93.30
2018-04-19T23:29:29.772Z,93.30
2018-04-19T23:31:56.275Z,93.30
2018-04-19T23:34:23.659Z,93.60
2018-04-19T23:36:50.109Z,93.70
2018-04-19T23:39:16.632Z,93.90
2018-04-19T23:41:43.121Z,93.80
2018-04-19T23:44:09.685Z,93.90
2018-04-19T23:46:36.260Z,94.00
2018-04-19T23:49:02.733Z,93.80
2018-04-19T23:51:30.831Z,93.80
2018-04-19T23:53:57.273Z,93.80
2018-04-19T23:56:25.584Z,93.70
2018-04-19T23:58:52.478Z,93.80
